createdAt,value
2022-08-12T00:00:54.431Z,100064.53
2022-08-12T00:05:16.814Z,100063.84
2022-08-12T00:09:38.164Z,100060.53
2022-08-12T00:13:58.989Z,100051.06
2022-08-12T00:18:20.325Z,100051.25
2022-08-12T00:22:42.601Z,100058.59
2022-08-12T00:27:05.815Z,100057.84
2022-08-12T00:31:26.643Z,100053.53
2022-08-12T00:35:46.940Z,100048.38
2022-08-12T00:40:11.394Z,100051.09
2022-08-12T00:44:16.966Z,100037.06
2022-08-12T00:48:20.678Z,100038.19
2022-08-12T00:52:24.425Z,100040.31
2022-08-12T00:56:29.778Z,100042.34
2022-08-12T01:00:33.316Z,100044.34
2022-08-12T01:04:58.166Z,100042.69
2022-08-12T01:09:18.896Z,100035.59
2022-08-12T01:13:24.154Z,100025.00
2022-08-12T01:17:27.442Z,100032.19
2022-08-12T01:21:50.789Z,100030.53
2022-08-12T01:25:57.174Z,100029.78
2022-08-12T01:30:03.887Z,100042.34
2022-08-12T01:34:35.946Z,100038.91
2022-08-12T01:38:34.856Z,100036.44
2022-08-12T01:42:46.188Z,100028.69
2022-08-12T01:46:59.737Z,100024.38
2022-08-12T01:51:07.989Z,100027.28
2022-08-12T01:55:12.491Z,100022.97
2022-08-12T01:59:38.760Z,100026.63
2022-08-12T02:04:22.003Z,100029.47
2022-08-12T02:08:52.492Z,100026.91
2022-08-12T02:13:07.586Z,100027.00
2022-08-12T02:17:54.566Z,100029.75
2022-08-12T02:22:04.728Z,100020.09
2022-08-12T02:26:10.000Z,100023.78
2022-08-12T02:30:16.017Z,100016.75
2022-08-12T02:34:23.048Z,100009.84
2022-08-12T02:38:29.073Z,100008.19
2022-08-12T02:42:35.097Z,99991.34
2022-08-12T02:46:40.554Z,99995.94
2022-08-12T02:50:48.058Z,99996.06
2022-08-12T02:54:58.378Z,99993.38
2022-08-12T02:59:02.701Z,99990.75
2022-08-12T03:03:08.356Z,99996.16
2022-08-12T03:07:19.087Z,100000.72
2022-08-12T03:11:28.393Z,99999.94
2022-08-12T03:15:34.113Z,100001.81
2022-08-12T03:20:08.730Z,100001.84
2022-08-12T03:24:05.901Z,100008.19
2022-08-12T03:28:23.628Z,100010.97
2022-08-12T03:32:36.163Z,100016.44
2022-08-12T03:36:42.133Z,100012.88
2022-08-12T03:41:15.354Z,100020.13
2022-08-12T03:45:51.830Z,100015.78
2022-08-12T03:50:14.056Z,100018.53
2022-08-12T03:54:35.273Z,100022.13
2022-08-12T03:58:59.809Z,100016.69
2022-08-12T04:03:03.116Z,100017.56
2022-08-12T04:07:08.977Z,100010.44
2022-08-12T04:11:32.187Z,100014.78
2022-08-12T04:15:36.861Z,100020.13
2022-08-12T04:19:40.987Z,100021.00
2022-08-12T04:23:48.373Z,100025.44
2022-08-12T04:27:52.109Z,100027.31
2022-08-12T04:31:56.862Z,100038.78
2022-08-12T04:35:59.951Z,100035.13
2022-08-12T04:40:04.768Z,100041.34
2022-08-12T04:44:08.952Z,100046.66
2022-08-12T04:48:13.491Z,100040.47
2022-08-12T04:52:19.793Z,100046.69
2022-08-12T04:56:22.869Z,100052.03
2022-08-12T05:00:27.556Z,100059.09
2022-08-12T05:04:32.550Z,100052.00
2022-08-12T05:08:36.868Z,100053.81
2022-08-12T05:12:44.962Z,100055.75
2022-08-12T05:16:48.057Z,100061.13
2022-08-12T05:20:54.647Z,100058.47
2022-08-12T05:24:57.719Z,100062.94
2022-08-12T05:29:00.804Z,100066.44
2022-08-12T05:33:06.357Z,100075.22
2022-08-12T05:37:10.761Z,100068.81
2022-08-12T05:41:20.672Z,100072.13
2022-08-12T05:45:24.005Z,100078.88
2022-08-12T05:49:27.175Z,100077.59
2022-08-12T05:53:31.738Z,100077.25
2022-08-12T05:57:34.835Z,100077.50
2022-08-12T06:02:12.762Z,100086.78
2022-08-12T06:06:03.525Z,100080.75
2022-08-12T06:10:08.885Z,100089.03
2022-08-12T06:14:12.347Z,100090.03
2022-08-12T06:18:16.215Z,100084.28
2022-08-12T06:22:19.614Z,100082.88
2022-08-12T06:26:24.131Z,100086.72
2022-08-12T06:30:36.769Z,100080.84
2022-08-12T06:35:23.226Z,100082.03
2022-08-12T06:39:04.771Z,100089.69
2022-08-12T06:43:19.139Z,100087.28
2022-08-12T06:47:22.235Z,100084.94
2022-08-12T06:51:25.831Z,100075.28
2022-08-12T06:55:30.228Z,100080.19
2022-08-12T06:59:35.797Z,100074.56
2022-08-12T07:03:39.343Z,100068.38
2022-08-12T07:07:42.513Z,100062.38
2022-08-12T07:11:50.758Z,100067.00
2022-08-12T07:15:56.712Z,100061.03
2022-08-12T07:20:04.274Z,100059.22
2022-08-12T07:24:08.085Z,100058.56
2022-08-12T07:28:16.790Z,100066.66
2022-08-12T07:32:25.639Z,100071.44
2022-08-12T07:36:33.968Z,100068.06
2022-08-12T07:40:37.130Z,100067.41
2022-08-12T07:44:40.252Z,100068.50
2022-08-12T07:48:46.339Z,100067.63
2022-08-12T07:52:49.823Z,100072.06
2022-08-12T07:56:53.078Z,100067.72
2022-08-12T08:00:59.714Z,100070.38
2022-08-12T08:05:06.059Z,100073.44
2022-08-12T08:09:11.247Z,100075.00
2022-08-12T08:13:15.391Z,100079.50
2022-08-12T08:17:18.585Z,100072.38
2022-08-12T08:21:24.404Z,100089.09
2022-08-12T08:25:36.529Z,100078.97
2022-08-12T08:29:41.146Z,100080.00
2022-08-12T08:34:05.039Z,100067.44
2022-08-12T08:38:14.118Z,100066.25
2022-08-12T08:42:40.569Z,100070.31
2022-08-12T08:46:44.609Z,100063.97
2022-08-12T08:50:47.856Z,100066.81
2022-08-12T08:55:10.606Z,100067.72
2022-08-12T08:59:14.661Z,100072.38
2022-08-12T09:05:12.800Z,100069.91
2022-08-12T09:12:30.084Z,100066.13
2022-08-12T09:16:36.694Z,100064.72
2022-08-12T09:20:44.229Z,100050.91
2022-08-12T09:24:53.917Z,100054.53
2022-08-12T09:29:00.759Z,100050.03
2022-08-12T09:33:15.026Z,100044.19
2022-08-12T09:37:28.379Z,100033.75
2022-08-12T09:42:40.804Z,100039.41
2022-08-12T09:46:36.021Z,100043.38
2022-08-12T09:50:41.917Z,100029.44
2022-08-12T09:54:59.823Z,100030.06
2022-08-12T09:59:10.028Z,100021.03
2022-08-12T10:03:31.272Z,100007.72
2022-08-12T10:07:40.691Z,100000.22
2022-08-12T10:12:11.922Z,99997.84
2022-08-12T10:16:22.557Z,99993.22
2022-08-12T10:20:27.442Z,99988.78
2022-08-12T10:24:30.558Z,99981.94
2022-08-12T10:28:56.292Z,99990.13
2022-08-12T10:33:18.834Z,99985.78
2022-08-12T10:38:35.506Z,99971.94
2022-08-12T10:42:04.725Z,99963.25
2022-08-12T10:46:09.126Z,99960.22
2022-08-12T10:50:29.514Z,99966.97
2022-08-12T10:54:43.088Z,99949.78
2022-08-12T10:58:47.066Z,99950.09
2022-08-12T11:04:27.680Z,99953.38
2022-08-12T11:08:33.577Z,99945.41
2022-08-12T11:12:36.982Z,99942.47
2022-08-12T11:16:19.437Z,99934.16
2022-08-12T11:20:29.080Z,99939.00
2022-08-12T11:24:34.870Z,99940.09
2022-08-12T11:28:40.849Z,99928.63
2022-08-12T11:32:43.929Z,99925.81
2022-08-12T11:36:56.243Z,99924.72
2022-08-12T11:41:04.092Z,99926.91
2022-08-12T11:45:10.316Z,99923.44
2022-08-12T11:49:13.894Z,99914.84
2022-08-12T11:53:59.497Z,99921.28
2022-08-12T11:58:16.299Z,99906.94
2022-08-12T12:02:23.024Z,99904.34
2022-08-12T12:06:26.306Z,99904.66
2022-08-12T12:10:29.567Z,99901.28
2022-08-12T12:14:39.129Z,99892.38
2022-08-12T12:18:43.876Z,99899.63
2022-08-12T12:22:46.958Z,99891.69
2022-08-12T12:27:00.798Z,99884.34
2022-08-12T12:31:04.391Z,99881.66
2022-08-12T12:35:14.150Z,99879.56
2022-08-12T12:39:54.905Z,99883.66
2022-08-12T12:43:56.629Z,99876.09
2022-08-12T12:48:09.714Z,99870.22
2022-08-12T12:52:18.489Z,99864.13
2022-08-12T12:56:33.894Z,99860.97
2022-08-12T13:00:42.544Z,99868.66
2022-08-12T13:04:54.511Z,99863.25
2022-08-12T13:09:02.539Z,99845.97
2022-08-12T13:14:06.486Z,99841.34
2022-08-12T13:18:01.949Z,99844.28
2022-08-12T13:22:14.472Z,99839.13
2022-08-12T13:26:22.643Z,99838.72
2022-08-12T13:30:28.164Z,99844.78
2022-08-12T13:34:35.655Z,99838.72
2022-08-12T13:38:41.334Z,99832.16
2022-08-12T13:42:50.961Z,99824.31
2022-08-12T13:46:58.878Z,99819.13
2022-08-12T13:51:04.410Z,99818.03
2022-08-12T13:55:08.222Z,99821.28
2022-08-12T13:59:13.522Z,99817.78
2022-08-12T14:03:17.849Z,99813.91
2022-08-12T14:07:20.935Z,99815.66
2022-08-12T14:11:27.973Z,99821.31
2022-08-12T14:15:38.502Z,99813.13
2022-08-12T14:20:01.896Z,99815.75
2022-08-12T14:24:09.570Z,99816.88
2022-08-12T14:28:16.327Z,99815.41
2022-08-12T14:32:20.900Z,99809.66
2022-08-12T14:36:27.595Z,99808.72
2022-08-12T14:40:31.449Z,99802.88
2022-08-12T14:44:57.621Z,99792.03
2022-08-12T14:49:27.501Z,99795.41
2022-08-12T14:57:56.592Z,99786.63
2022-08-12T15:02:00.527Z,99772.97
2022-08-12T15:06:39.223Z,99774.72
2022-08-12T15:10:34.108Z,99770.38
2022-08-12T15:14:38.250Z,99761.59
2022-08-12T15:18:55.528Z,99763.78
2022-08-12T15:23:03.887Z,99758.03
2022-08-12T15:27:09.435Z,99769.34
2022-08-12T15:31:27.743Z,99762.38
2022-08-12T15:35:49.928Z,99752.66
2022-08-12T15:40:00.709Z,99740.97
2022-08-12T15:44:37.309Z,99743.88
2022-08-12T15:48:30.418Z,99738.69
2022-08-12T15:52:33.711Z,99733.47
2022-08-12T15:56:38.383Z,99737.94
2022-08-12T16:00:42.311Z,99729.81
2022-08-12T16:04:50.413Z,99725.34
2022-08-12T16:08:54.348Z,99724.59
2022-08-12T16:13:04.662Z,99725.72
2022-08-12T16:17:15.515Z,99725.06
2022-08-12T16:21:51.258Z,99723.72
2022-08-12T16:26:05.326Z,99724.06
2022-08-12T16:30:14.015Z,99726.44
2022-08-12T16:34:26.087Z,99730.25
2022-08-12T16:38:41.138Z,99728.72
2022-08-12T16:42:53.777Z,99722.53
2022-08-12T16:47:06.542Z,99721.25
2022-08-12T16:51:12.331Z,99725.38
2022-08-12T16:55:15.549Z,99722.13
2022-08-12T16:59:21.871Z,99716.91
2022-08-12T17:03:28.962Z,99719.91
2022-08-12T17:07:43.104Z,99710.41
2022-08-12T17:11:49.715Z,99710.81
2022-08-12T17:16:04.926Z,99701.38
2022-08-12T17:20:34.547Z,99704.72
2022-08-12T17:24:36.793Z,99700.78
2022-08-12T17:28:45.539Z,99712.91
2022-08-12T17:32:57.169Z,99708.66
2022-08-12T17:37:05.240Z,99717.84
2022-08-12T17:41:22.524Z,99711.22
2022-08-12T17:45:32.837Z,99710.00
2022-08-12T17:50:03.150Z,99705.19
2022-08-12T17:54:12.463Z,99711.84
2022-08-12T17:58:17.596Z,99709.88
2022-08-12T18:02:29.881Z,99727.53
2022-08-12T18:06:34.784Z,99717.34
2022-08-12T18:10:58.119Z,99732.22
2022-08-12T18:15:27.014Z,99727.19
2022-08-12T18:20:05.809Z,99718.72
2022-08-12T18:24:05.421Z,99726.59
2022-08-12T18:28:27.490Z,99728.25
2022-08-12T18:32:58.254Z,99736.84
2022-08-12T18:37:27.021Z,99731.03
2022-08-12T18:41:33.521Z,99737.78
2022-08-12T18:45:47.027Z,99732.75
2022-08-12T18:50:00.036Z,99747.56
2022-08-12T18:54:06.044Z,99752.38
2022-08-12T18:58:14.028Z,99750.03
2022-08-12T19:02:25.442Z,99755.66
2022-08-12T19:06:36.473Z,99759.28
2022-08-12T19:10:50.188Z,99762.91
2022-08-12T19:15:04.288Z,99751.44
2022-08-12T19:19:11.182Z,99755.28
2022-08-12T19:23:21.274Z,99759.13
2022-08-12T19:27:25.926Z,99753.06
2022-08-12T19:31:56.443Z,99746.09
2022-08-12T19:36:07.830Z,99750.88
2022-08-12T19:40:32.928Z,99745.09
2022-08-12T19:44:38.036Z,99749.91
2022-08-12T19:48:45.043Z,99742.84
2022-08-12T19:53:03.839Z,99751.19
2022-08-12T19:57:11.399Z,99759.63
2022-08-12T20:01:17.445Z,99752.78
2022-08-12T20:06:06.289Z,99736.19
2022-08-12T20:09:47.414Z,99737.47
2022-08-12T20:14:01.506Z,99738.69
2022-08-12T20:18:07.681Z,99745.19
2022-08-12T20:22:31.695Z,99739.97
2022-08-12T20:26:38.463Z,99746.50
2022-08-12T20:30:59.633Z,99742.25
2022-08-12T20:35:10.017Z,99740.66
2022-08-12T20:39:17.866Z,99729.28
2022-08-12T20:43:42.054Z,99731.38
2022-08-12T20:47:47.293Z,99737.09
2022-08-12T20:52:01.638Z,99732.94
2022-08-12T20:56:19.607Z,99735.19
2022-08-12T21:00:28.325Z,99742.56
2022-08-12T21:04:49.157Z,99741.19
2022-08-12T21:09:00.084Z,99740.66
2022-08-12T21:13:04.607Z,99740.97
2022-08-12T21:17:33.897Z,99749.41
2022-08-12T21:21:53.821Z,99743.38
2022-08-12T21:26:02.052Z,99749.78
2022-08-12T21:30:06.332Z,99741.00
2022-08-12T21:34:11.459Z,99747.38
2022-08-12T21:38:15.621Z,99751.06
2022-08-12T21:42:26.283Z,99748.78
2022-08-12T21:46:34.950Z,99746.41
2022-08-12T21:50:40.089Z,99743.09
2022-08-12T21:54:46.703Z,99741.69
2022-08-12T21:58:49.914Z,99748.16
2022-08-12T22:03:10.769Z,99745.63
2022-08-12T22:07:18.780Z,99750.22
2022-08-12T22:11:23.492Z,99746.78
2022-08-12T22:15:45.618Z,99742.56
2022-08-12T22:19:54.319Z,99742.75
2022-08-12T22:24:05.561Z,99754.66
2022-08-12T22:28:26.412Z,99751.25
2022-08-12T22:32:30.103Z,99747.00
2022-08-12T22:36:33.492Z,99743.69
2022-08-12T22:40:37.975Z,99744.88
2022-08-12T22:44:59.078Z,99742.19
2022-08-12T22:49:02.377Z,99751.25
2022-08-12T22:53:18.393Z,99746.03
2022-08-12T22:57:23.662Z,99746.13
2022-08-12T23:01:52.187Z,99742.53
2022-08-12T23:06:11.230Z,99737.34
2022-08-12T23:10:14.471Z,99732.19
2022-08-12T23:14:24.910Z,99729.72
2022-08-12T23:18:33.361Z,99717.41
2022-08-12T23:22:37.412Z,99721.16
2022-08-12T23:26:58.023Z,99722.28
2022-08-12T23:31:04.717Z,99725.16
2022-08-12T23:35:09.666Z,99715.47
2022-08-12T23:40:14.607Z,99706.72
2022-08-12T23:43:50.090Z,99706.88
2022-08-12T23:47:55.430Z,99710.81
2022-08-12T23:52:07.096Z,99712.91
2022-08-12T23:56:12.316Z,99717.53
